Terminal Aerodrome Forecast
Issued by NWS Shreveport, LA

Home | Current Version | Previous Version | Text Only | Print | Product List | Glossary On
Versions: 1 2 3 4 5 6 7 8 9 10 11 12 13 14 15
156
FTUS44 KSHV 271732
TAFGGG
TAF
KGGG 271732Z 2718/2818 04007KT P6SM BKN050 BKN070
     FM272000 35006KT P6SM SCT050 BKN070 BKN200
     FM280000 34003KT P6SM FEW070 BKN200
     FM280500 00000KT P6SM SKC
     FM281500 27006KT P6SM FEW250=

USA.gov is the U.S. government's official web portal to all federal, state and local government web resources and services.